Fairfield, OH

10:20 AM EDT on July 30, 2016 (GMT -0400)
Butler County Regional | | Change Station

Elev 633 ft 39.36 °N, 84.52 °W | Updated 27 minutes ago

Overcast
Overcast
75 °F
Feels Like 75 °F
N
6
Wind Variable Wind from West

Today
High -- | Low -- °F
--% Chance of Precip.
Yesterday
High -- | Low -- °F
Precip. -- in
Pressure 29.97 in
Visibility 8.0 miles
Clouds Overcast 800 ft
Dew Point 70 °F
Humidity 84%
Rainfall 0.00 in
Snow Depth Not available.
6:36 AM 8:51 PM
Waning Crescent, 13% visible
METAR KHAO 301353Z AUTO 28005KT 8SM OVC008 24/21 A2998 RMK AO2 CIG 007V012 SLP147 T02390211
Pressure 29.97 in
Visibility 8.0 miles
Clouds Overcast 800 ft
Dew Point 70 °F
Humidity 84%
Rainfall 0.00 in
Snow Depth Not available.
6:36 AM 8:51 PM
Waning Crescent, 13% visible
METAR KHAO 301353Z AUTO 28005KT 8SM OVC008 24/21 A2998 RMK AO2 CIG 007V012 SLP147 T02390211

10-Day Weather Forecast

Almanac

Astronomy

Jul. 30, 2016 Rise Set
Actual Time
Civil Twilight
Nautical Twilight
Astronomical Twilight
Moon
Length of Visible Light
Length of Day
Tomorrow will be .
, % of the Moon is Illuminated

Today's Extremes

State Highs State Lows

Community

WunderPhotos

Upload Photos

1,928,564 photos uploaded!

WunderBlog® & News

Nearby

Air Quality

  Air Quality AQ Index Pollutant
Not available.

Snow Depth

Station Depth Elevation

Earthquake Activity

City Distance Mag. Time & Date
Minimum magnitude displayed is 2.5.

Coastal Water Temperatures

Place Temperature

Stations

Nearby Weather Stations

Station Location Temp. Windchill Dew Point Humidity Wind Precip. Elev Updated Type
                   

Watches & Warnings

There are currently no watches in effect.